Terminal Aerodrome Forecast
Issued by NWS

Home | Current Version | Previous Version | Text Only | Print | Product List | Glossary On
Versions: 1 2 3 4 5 6 7 8 9 10 11 12 13 14 15 16
000
FTUS42 KMLB 011125
TAFSUA
TAF
KSUA 011125Z 0112/0212 00000KT P6SM SCT025
     FM011300 VRB03KT P6SM SCT030 SCT250
     FM011700 08008KT P6SM VCTS SCT035CB SCT250
     FM012200 10006KT P6SM VCSH SCT040 SCT060 BKN250
     FM020300 10003KT P6SM FEW030 SCT060 BKN250=

USA.gov is the U.S. government's official web portal to all federal, state and local government web resources and services.